createdAt,value
2022-11-29T00:01:34.098Z,6.90
2022-11-29T00:04:02.469Z,6.80
2022-11-29T00:06:32.965Z,6.80
2022-11-29T00:09:07.616Z,6.80
2022-11-29T00:11:55.679Z,6.80
2022-11-29T00:14:23.631Z,6.80
2022-11-29T00:16:57.110Z,6.80
2022-11-29T00:19:24.160Z,6.80
2022-11-29T00:21:51.221Z,6.80
2022-11-29T00:24:18.502Z,6.90
2022-11-29T00:26:45.643Z,6.90
2022-11-29T00:29:13.532Z,6.90
2022-11-29T00:31:41.522Z,6.90
2022-11-29T00:34:10.373Z,6.90
2022-11-29T00:36:37.650Z,7.00
2022-11-29T00:39:05.775Z,7.00
2022-11-29T00:41:33.059Z,7.00
2022-11-29T00:44:00.714Z,7.00
2022-11-29T00:46:28.666Z,7.10
2022-11-29T00:48:55.744Z,7.00
2022-11-29T00:51:22.659Z,7.00
2022-11-29T00:53:49.857Z,7.00
2022-11-29T00:56:16.846Z,7.00
2022-11-29T00:58:43.945Z,7.00
2022-11-29T01:01:11.847Z,7.00
2022-11-29T01:03:39.470Z,7.00
2022-11-29T01:06:09.911Z,7.00
2022-11-29T01:08:37.806Z,7.00
2022-11-29T01:11:21.926Z,7.00
2022-11-29T01:13:51.416Z,7.00
2022-11-29T01:16:18.772Z,7.00
2022-11-29T01:18:45.946Z,7.00
2022-11-29T01:21:20.396Z,7.00
2022-11-29T01:23:49.501Z,7.00
2022-11-29T01:26:26.718Z,7.00
2022-11-29T01:28:55.995Z,7.00
2022-11-29T01:31:36.008Z,7.00
2022-11-29T01:34:06.836Z,7.00
2022-11-29T01:36:34.622Z,7.00
2022-11-29T01:39:03.716Z,7.00
2022-11-29T01:41:34.377Z,7.00
2022-11-29T01:44:12.148Z,7.00
2022-11-29T01:46:45.221Z,7.00
2022-11-29T01:49:21.053Z,7.00
2022-11-29T01:52:12.785Z,7.00
2022-11-29T01:54:45.079Z,7.10
2022-11-29T01:57:13.848Z,7.10
2022-11-29T01:59:49.321Z,7.10
2022-11-29T02:02:23.672Z,7.10
2022-11-29T02:04:51.188Z,7.10
2022-11-29T02:07:18.207Z,7.20
2022-11-29T02:09:45.229Z,7.20
2022-11-29T02:12:22.636Z,7.20
2022-11-29T02:15:21.711Z,7.20
2022-11-29T02:18:12.114Z,7.20
2022-11-29T02:21:42.378Z,7.20
2022-11-29T02:25:11.101Z,7.20
2022-11-29T02:28:06.428Z,7.10
2022-11-29T02:31:23.698Z,7.10
2022-11-29T02:34:02.830Z,7.10
2022-11-29T02:37:11.405Z,7.00
2022-11-29T02:40:26.689Z,7.10
2022-11-29T02:43:05.404Z,7.00
2022-11-29T02:46:04.544Z,7.00
2022-11-29T02:49:06.559Z,7.00
2022-11-29T02:51:41.460Z,7.10
2022-11-29T02:54:14.480Z,7.00
2022-11-29T02:57:21.843Z,7.00
2022-11-29T03:00:22.796Z,7.00
2022-11-29T03:03:17.203Z,7.00
2022-11-29T03:06:19.044Z,7.00
2022-11-29T03:09:19.414Z,7.00
2022-11-29T03:11:55.640Z,7.00
2022-11-29T03:14:58.507Z,7.00
2022-11-29T03:17:57.531Z,7.00
2022-11-29T03:20:56.821Z,6.90
2022-11-29T03:23:31.580Z,7.00
2022-11-29T03:26:11.257Z,7.00
2022-11-29T03:28:55.166Z,7.00
2022-11-29T03:31:52.145Z,7.00
2022-11-29T03:34:57.623Z,7.10
2022-11-29T03:37:38.578Z,7.10
2022-11-29T03:40:24.738Z,7.10
2022-11-29T03:43:02.394Z,7.10
2022-11-29T03:45:52.556Z,7.10
2022-11-29T03:48:31.951Z,7.10
2022-11-29T03:51:31.123Z,7.10
2022-11-29T03:54:11.272Z,7.10
2022-11-29T03:56:42.032Z,7.10
2022-11-29T03:59:45.934Z,7.20
2022-11-29T04:02:21.835Z,7.10
2022-11-29T04:05:27.859Z,7.20
2022-11-29T04:08:33.213Z,7.20
2022-11-29T04:11:37.111Z,7.20
2022-11-29T04:14:31.900Z,7.20
2022-11-29T04:17:13.537Z,7.20
2022-11-29T04:20:00.570Z,7.20
2022-11-29T04:23:23.402Z,7.20
2022-11-29T04:26:40.239Z,7.20
2022-11-29T04:29:35.242Z,7.10
2022-11-29T04:32:20.802Z,7.10
2022-11-29T04:35:35.853Z,7.10
2022-11-29T04:38:24.735Z,7.20
2022-11-29T04:41:19.923Z,7.10
2022-11-29T04:44:38.072Z,7.20
2022-11-29T04:47:07.940Z,7.10
2022-11-29T04:50:00.850Z,7.20
2022-11-29T04:52:49.622Z,7.20
2022-11-29T04:56:00.150Z,7.20
2022-11-29T04:58:40.142Z,7.20
2022-11-29T05:01:46.265Z,7.30
2022-11-29T05:04:46.482Z,7.20
2022-11-29T05:07:36.289Z,7.20
2022-11-29T05:10:22.939Z,7.20
2022-11-29T05:13:33.082Z,7.30
2022-11-29T05:16:25.892Z,7.30
2022-11-29T05:19:28.265Z,7.30
2022-11-29T05:22:22.529Z,7.30
2022-11-29T05:25:00.710Z,7.30
2022-11-29T05:27:47.571Z,7.30
2022-11-29T05:30:16.955Z,7.30
2022-11-29T05:33:09.604Z,7.30
2022-11-29T05:35:55.040Z,7.30
2022-11-29T05:39:00.554Z,7.20
2022-11-29T05:42:02.729Z,7.10
2022-11-29T05:44:53.753Z,7.10
2022-11-29T05:47:40.796Z,7.10
2022-11-29T05:50:23.505Z,7.10
2022-11-29T05:53:52.285Z,7.10
2022-11-29T05:56:37.396Z,7.10
2022-11-29T05:59:12.812Z,7.10
2022-11-29T06:02:28.427Z,7.10
2022-11-29T06:05:07.631Z,7.10
2022-11-29T06:07:44.804Z,7.20
2022-11-29T06:10:18.195Z,7.20
2022-11-29T06:13:09.587Z,7.10
2022-11-29T06:16:04.033Z,7.10
2022-11-29T06:18:58.689Z,7.20
2022-11-29T06:21:53.332Z,7.10
2022-11-29T06:24:51.562Z,7.20
2022-11-29T06:28:06.601Z,7.20
2022-11-29T06:31:27.640Z,7.20
2022-11-29T06:34:09.819Z,7.20
2022-11-29T06:36:43.992Z,7.10
2022-11-29T06:39:11.682Z,7.10
2022-11-29T06:41:38.624Z,7.10
2022-11-29T06:44:06.598Z,7.10
2022-11-29T06:46:53.987Z,7.10
2022-11-29T06:49:38.765Z,7.10
2022-11-29T06:52:23.137Z,7.10
2022-11-29T06:55:40.160Z,7.10
2022-11-29T06:58:42.740Z,7.10
2022-11-29T07:01:31.493Z,7.10
2022-11-29T07:04:30.037Z,7.10
2022-11-29T07:06:57.354Z,7.20
2022-11-29T07:09:32.490Z,7.20
2022-11-29T07:11:59.965Z,7.20
2022-11-29T07:14:27.344Z,7.20
2022-11-29T07:17:09.194Z,7.20
2022-11-29T07:20:20.064Z,7.20
2022-11-29T07:22:59.768Z,7.20
2022-11-29T07:25:58.658Z,7.20
2022-11-29T07:29:28.139Z,7.20
2022-11-29T07:32:16.059Z,7.20
2022-11-29T07:35:03.678Z,7.20
2022-11-29T07:38:10.532Z,7.20
2022-11-29T07:41:04.341Z,7.10
2022-11-29T07:43:52.975Z,7.10
2022-11-29T07:46:20.019Z,7.10
2022-11-29T07:48:46.970Z,7.20
2022-11-29T07:51:14.386Z,7.20
2022-11-29T07:53:44.058Z,7.20
2022-11-29T07:56:12.420Z,7.20
2022-11-29T07:58:39.799Z,7.20
2022-11-29T08:01:07.197Z,7.20
2022-11-29T08:03:35.488Z,7.20
2022-11-29T08:06:03.485Z,7.20
2022-11-29T08:08:30.453Z,7.20
2022-11-29T08:10:57.401Z,7.30
2022-11-29T08:13:24.483Z,7.30
2022-11-29T08:15:51.605Z,7.30
2022-11-29T08:18:18.734Z,7.30
2022-11-29T08:20:46.275Z,7.30
2022-11-29T08:23:14.746Z,7.30
2022-11-29T08:25:41.986Z,7.30
2022-11-29T08:28:09.572Z,7.30
2022-11-29T08:30:36.597Z,7.30
2022-11-29T08:33:04.347Z,7.30
2022-11-29T08:35:31.296Z,7.30
2022-11-29T08:37:58.271Z,7.30
2022-11-29T08:40:25.341Z,7.30
2022-11-29T08:42:52.341Z,7.30
2022-11-29T08:45:20.217Z,7.30
2022-11-29T08:47:48.890Z,7.30
2022-11-29T08:50:18.177Z,7.30
2022-11-29T08:53:06.956Z,7.30
2022-11-29T08:55:39.881Z,7.30
2022-11-29T08:58:11.093Z,7.30
2022-11-29T09:00:38.557Z,7.30
2022-11-29T09:03:26.121Z,7.30
2022-11-29T09:05:53.615Z,7.30
2022-11-29T09:08:20.933Z,7.30
2022-11-29T09:10:48.084Z,7.30
2022-11-29T09:13:15.311Z,7.30
2022-11-29T09:15:43.640Z,7.30
2022-11-29T09:18:11.004Z,7.30
2022-11-29T09:20:38.123Z,7.30
2022-11-29T09:23:05.218Z,7.30
2022-11-29T09:25:32.219Z,7.30
2022-11-29T09:28:02.726Z,7.40
2022-11-29T09:30:35.047Z,7.40
2022-11-29T09:33:03.868Z,7.40
2022-11-29T09:35:32.785Z,7.40
2022-11-29T09:38:00.203Z,7.50
2022-11-29T09:40:55.927Z,7.50
2022-11-29T09:43:43.822Z,7.50
2022-11-29T09:46:50.488Z,7.40
2022-11-29T09:49:55.505Z,7.50
2022-11-29T09:52:58.378Z,7.50
2022-11-29T09:55:43.094Z,7.50
2022-11-29T09:58:18.368Z,7.50
2022-11-29T10:00:56.353Z,7.60
2022-11-29T10:03:36.451Z,7.60
2022-11-29T10:06:25.727Z,7.70
2022-11-29T10:09:04.625Z,7.70
2022-11-29T10:11:50.370Z,7.70
2022-11-29T10:14:27.094Z,7.70
2022-11-29T10:17:10.098Z,7.80
2022-11-29T10:19:43.220Z,7.90
2022-11-29T10:22:10.072Z,7.90
2022-11-29T10:24:39.697Z,7.90
2022-11-29T10:27:22.603Z,8.00
2022-11-29T10:29:51.552Z,8.10
2022-11-29T10:32:21.256Z,8.20
2022-11-29T10:34:49.816Z,8.20
2022-11-29T10:37:21.999Z,8.20
2022-11-29T10:39:54.933Z,8.30
2022-11-29T10:42:44.695Z,8.30
2022-11-29T10:45:22.719Z,8.20
2022-11-29T10:47:51.225Z,8.30
2022-11-29T10:50:28.243Z,8.40
2022-11-29T10:53:17.301Z,8.40
2022-11-29T10:55:48.888Z,8.50
2022-11-29T10:58:28.381Z,8.50
2022-11-29T11:01:08.848Z,8.50
2022-11-29T11:03:54.820Z,8.50
2022-11-29T11:06:43.041Z,8.40
2022-11-29T11:09:44.288Z,8.40
2022-11-29T11:12:14.139Z,8.50
2022-11-29T11:14:42.627Z,8.50
2022-11-29T11:17:32.563Z,8.50
2022-11-29T11:20:10.169Z,8.50
2022-11-29T11:22:39.862Z,8.50
2022-11-29T11:25:25.360Z,8.40
2022-11-29T11:27:52.985Z,8.30
2022-11-29T11:30:27.542Z,8.30
2022-11-29T11:33:27.465Z,8.30
2022-11-29T11:36:19.342Z,8.30
2022-11-29T11:39:11.746Z,8.30
2022-11-29T11:42:00.855Z,8.30
2022-11-29T11:44:52.495Z,8.40
2022-11-29T11:47:27.261Z,8.30
2022-11-29T11:50:02.426Z,8.30
2022-11-29T11:52:39.611Z,8.30
2022-11-29T11:55:29.684Z,8.30
2022-11-29T11:58:10.420Z,8.30
2022-11-29T12:01:16.336Z,8.30
2022-11-29T12:04:05.149Z,8.30
2022-11-29T12:06:52.173Z,8.30
2022-11-29T12:09:56.232Z,8.40
2022-11-29T12:12:42.092Z,8.40
2022-11-29T12:15:19.450Z,8.40
2022-11-29T12:17:49.365Z,8.50
2022-11-29T12:20:24.464Z,8.50
2022-11-29T12:23:07.101Z,8.60
2022-11-29T12:25:51.817Z,8.60
2022-11-29T12:28:21.159Z,8.60
2022-11-29T12:31:25.393Z,8.60
2022-11-29T12:34:48.236Z,8.60
2022-11-29T12:38:03.923Z,8.60
2022-11-29T12:40:42.482Z,8.60
2022-11-29T12:43:21.068Z,8.60
2022-11-29T12:46:19.363Z,8.70
2022-11-29T12:49:12.027Z,8.70
2022-11-29T12:52:05.239Z,8.80
2022-11-29T12:54:41.024Z,8.70
2022-11-29T12:57:44.699Z,8.70
2022-11-29T13:00:15.271Z,8.70
2022-11-29T13:03:12.303Z,8.70
2022-11-29T13:06:22.220Z,8.70
2022-11-29T13:09:26.916Z,8.70
2022-11-29T13:12:21.368Z,8.70
2022-11-29T13:15:11.084Z,8.70
2022-11-29T13:18:02.025Z,8.70
2022-11-29T13:21:01.669Z,8.80
2022-11-29T13:24:10.905Z,8.80
2022-11-29T13:26:40.203Z,8.80
2022-11-29T13:29:14.267Z,8.80
2022-11-29T13:31:41.951Z,8.90
2022-11-29T13:34:22.672Z,8.90
2022-11-29T13:37:08.061Z,8.90
2022-11-29T13:39:50.924Z,8.90
2022-11-29T13:42:42.146Z,8.90
2022-11-29T13:45:37.785Z,9.00
2022-11-29T13:48:50.263Z,9.00
2022-11-29T13:51:36.879Z,9.00
2022-11-29T13:54:10.457Z,9.00
2022-11-29T13:56:46.595Z,9.00
2022-11-29T13:59:28.572Z,9.00
2022-11-29T14:01:56.924Z,9.00
2022-11-29T14:04:30.411Z,9.00
2022-11-29T14:07:10.983Z,9.00
2022-11-29T14:09:45.174Z,9.00
2022-11-29T14:12:37.635Z,9.00
2022-11-29T14:15:25.448Z,9.00
2022-11-29T14:17:58.688Z,9.00
2022-11-29T14:20:26.415Z,8.90
2022-11-29T14:23:05.402Z,8.90
2022-11-29T14:25:50.979Z,8.90
2022-11-29T14:28:21.442Z,8.90
2022-11-29T14:30:49.846Z,8.90
2022-11-29T14:33:24.173Z,8.80
2022-11-29T14:36:19.204Z,8.80
2022-11-29T14:39:58.632Z,8.80
2022-11-29T14:42:26.785Z,8.80
2022-11-29T14:45:01.270Z,8.80
2022-11-29T14:47:38.865Z,8.80
2022-11-29T14:50:10.439Z,8.80
2022-11-29T14:52:40.256Z,8.70
2022-11-29T14:55:14.938Z,8.70
2022-11-29T14:57:50.241Z,8.70
2022-11-29T15:00:48.526Z,8.70
2022-11-29T15:03:20.578Z,8.70
2022-11-29T15:06:00.324Z,8.70
2022-11-29T15:08:27.145Z,8.70
2022-11-29T15:11:02.057Z,8.70
2022-11-29T15:13:36.018Z,8.70
2022-11-29T15:16:31.204Z,8.70
2022-11-29T15:19:04.409Z,8.70
2022-11-29T15:21:43.273Z,8.70
2022-11-29T15:24:17.014Z,8.70
2022-11-29T15:26:58.618Z,8.70
2022-11-29T15:29:27.695Z,8.70
2022-11-29T15:32:01.600Z,8.70
2022-11-29T15:34:37.201Z,8.80
2022-11-29T15:37:04.743Z,8.80
2022-11-29T15:39:35.219Z,8.70
2022-11-29T15:42:13.069Z,8.80
2022-11-29T15:44:48.141Z,8.80
2022-11-29T15:47:22.300Z,8.80
2022-11-29T15:49:50.783Z,8.80
2022-11-29T15:52:36.389Z,8.80
2022-11-29T15:55:06.636Z,8.80
2022-11-29T15:57:43.325Z,8.80
2022-11-29T16:00:23.803Z,8.80
2022-11-29T16:02:59.926Z,8.80
2022-11-29T16:05:30.506Z,8.80
2022-11-29T16:08:28.010Z,8.90
2022-11-29T16:10:55.567Z,8.80
2022-11-29T16:13:25.469Z,8.80
2022-11-29T16:16:27.125Z,8.70
2022-11-29T16:18:54.357Z,8.70
2022-11-29T16:21:25.204Z,8.70
2022-11-29T16:23:52.819Z,8.80
2022-11-29T16:26:44.005Z,8.80
2022-11-29T16:29:30.543Z,8.80
2022-11-29T16:31:57.918Z,8.80
2022-11-29T16:34:27.778Z,8.80
2022-11-29T16:37:03.609Z,8.80
2022-11-29T16:39:31.351Z,8.80
2022-11-29T16:42:28.234Z,8.80
2022-11-29T16:45:30.348Z,8.80
2022-11-29T16:48:00.366Z,8.80
2022-11-29T16:50:30.969Z,8.90
2022-11-29T16:53:35.825Z,8.90
2022-11-29T16:56:09.150Z,8.90
2022-11-29T16:58:41.702Z,9.00
2022-11-29T17:01:31.283Z,9.00
2022-11-29T17:04:00.450Z,9.00
2022-11-29T17:06:28.737Z,9.00
2022-11-29T17:08:57.952Z,8.90
2022-11-29T17:11:26.229Z,8.90
2022-11-29T17:13:53.692Z,8.90
2022-11-29T17:16:23.547Z,8.90
2022-11-29T17:18:52.823Z,9.00
2022-11-29T17:21:25.554Z,8.90
2022-11-29T17:23:54.045Z,8.90
2022-11-29T17:26:23.880Z,8.90
2022-11-29T17:28:52.289Z,8.90
2022-11-29T17:31:22.734Z,8.90
2022-11-29T17:33:51.144Z,8.90
2022-11-29T17:36:20.469Z,9.00
2022-11-29T17:38:47.862Z,8.90
2022-11-29T17:41:22.572Z,8.90
2022-11-29T17:43:51.389Z,9.00
2022-11-29T17:46:33.337Z,8.90
2022-11-29T17:49:03.744Z,8.90
2022-11-29T17:54:18.100Z,9.00
2022-11-29T17:56:44.987Z,8.90
2022-11-29T17:59:11.975Z,8.90
2022-11-29T18:01:39.068Z,8.90
2022-11-29T18:04:08.250Z,8.90
2022-11-29T18:06:39.430Z,8.90
2022-11-29T18:09:10.455Z,8.90
2022-11-29T18:11:48.248Z,8.90
2022-11-29T18:14:23.325Z,8.90
2022-11-29T18:16:51.176Z,8.90
2022-11-29T18:19:20.752Z,8.90
2022-11-29T18:21:48.959Z,8.90
2022-11-29T18:24:16.357Z,9.00
2022-11-29T18:26:43.693Z,9.00
2022-11-29T18:29:10.742Z,9.00
2022-11-29T18:31:41.583Z,9.00
2022-11-29T18:34:11.568Z,9.00
2022-11-29T18:36:44.993Z,9.00
2022-11-29T18:39:19.122Z,9.00
2022-11-29T18:41:48.470Z,9.00
2022-11-29T18:44:18.900Z,9.00
2022-11-29T18:46:46.715Z,9.00
2022-11-29T18:49:16.750Z,9.00
2022-11-29T18:51:45.895Z,9.00
2022-11-29T18:54:14.745Z,8.90
2022-11-29T18:56:43.179Z,8.90
2022-11-29T18:59:16.309Z,8.90
2022-11-29T19:01:45.817Z,8.90
2022-11-29T19:04:20.462Z,8.90
2022-11-29T19:06:48.165Z,8.90
2022-11-29T19:09:20.694Z,8.90
2022-11-29T19:11:49.620Z,8.80
2022-11-29T19:14:16.686Z,8.90
2022-11-29T19:16:46.988Z,8.90
2022-11-29T19:19:13.927Z,8.90
2022-11-29T19:21:41.634Z,8.90
2022-11-29T19:24:16.022Z,8.90
2022-11-29T19:26:45.710Z,8.90
2022-11-29T19:29:16.693Z,8.90
2022-11-29T19:31:44.635Z,8.90
2022-11-29T19:34:11.653Z,8.90
2022-11-29T19:36:43.717Z,9.00
2022-11-29T19:39:14.259Z,8.90
2022-11-29T19:41:44.667Z,9.00
2022-11-29T19:44:11.957Z,9.00
2022-11-29T19:46:46.872Z,9.00
2022-11-29T19:49:13.861Z,8.90
2022-11-29T19:51:41.340Z,8.90
2022-11-29T19:54:10.235Z,8.90
2022-11-29T19:56:38.692Z,8.90
2022-11-29T19:59:07.530Z,8.80
2022-11-29T20:01:40.696Z,8.90
2022-11-29T20:04:11.428Z,8.80
2022-11-29T20:06:38.503Z,8.80
2022-11-29T20:09:06.381Z,8.80
2022-11-29T20:11:33.502Z,8.80
2022-11-29T20:14:02.849Z,8.80
2022-11-29T20:16:31.463Z,8.80
2022-11-29T20:18:59.703Z,8.70
2022-11-29T20:21:30.499Z,8.70
2022-11-29T20:24:02.136Z,8.70
2022-11-29T20:26:31.283Z,8.70
2022-11-29T20:28:59.929Z,8.70
2022-11-29T20:31:27.681Z,8.70
2022-11-29T20:33:57.645Z,8.80
2022-11-29T20:37:08.243Z,8.80
2022-11-29T20:40:01.915Z,8.70
2022-11-29T20:42:57.081Z,8.70
2022-11-29T20:45:25.479Z,8.60
2022-11-29T20:48:15.211Z,8.50
2022-11-29T20:50:45.086Z,8.50
2022-11-29T20:53:36.513Z,8.50
2022-11-29T20:56:05.605Z,8.50
2022-11-29T20:58:33.141Z,8.40
2022-11-29T21:01:00.629Z,8.40
2022-11-29T21:03:29.311Z,8.40
2022-11-29T21:05:57.729Z,8.40
2022-11-29T21:08:26.801Z,8.50
2022-11-29T21:10:54.227Z,8.50
2022-11-29T21:13:23.645Z,8.60
2022-11-29T21:15:51.049Z,8.60
2022-11-29T21:18:25.300Z,8.60
2022-11-29T21:21:12.440Z,8.60
2022-11-29T21:24:00.613Z,8.60
2022-11-29T21:26:41.752Z,8.60
2022-11-29T21:29:24.519Z,8.60
2022-11-29T21:31:54.211Z,8.60
2022-11-29T21:34:22.220Z,8.60
2022-11-29T21:36:56.531Z,8.60
2022-11-29T21:39:31.072Z,8.60
2022-11-29T21:41:58.008Z,8.60
2022-11-29T21:44:24.937Z,8.60
2022-11-29T21:46:51.906Z,8.70
2022-11-29T21:49:19.083Z,8.70
2022-11-29T21:51:46.176Z,8.70
2022-11-29T21:54:13.187Z,8.70
2022-11-29T21:56:40.236Z,8.70
2022-11-29T21:59:07.348Z,8.70
2022-11-29T22:01:34.431Z,8.70
2022-11-29T22:04:01.613Z,8.60
2022-11-29T22:06:29.376Z,8.60
2022-11-29T22:08:56.919Z,8.70
2022-11-29T22:11:36.289Z,8.60
2022-11-29T22:14:19.321Z,8.70
2022-11-29T22:17:00.842Z,8.60
2022-11-29T22:19:34.317Z,8.60
2022-11-29T22:22:05.323Z,8.60
2022-11-29T22:24:35.447Z,8.60
2022-11-29T22:27:03.325Z,8.60
2022-11-29T22:29:30.355Z,8.50
2022-11-29T22:31:59.395Z,8.50
2022-11-29T22:34:27.475Z,8.50
2022-11-29T22:36:55.217Z,8.50
2022-11-29T22:39:23.941Z,8.50
2022-11-29T22:41:54.773Z,8.50
2022-11-29T22:44:23.994Z,8.50
2022-11-29T22:46:51.632Z,8.50
2022-11-29T22:49:18.769Z,8.50
2022-11-29T22:51:45.878Z,8.50
2022-11-29T22:54:16.311Z,8.50
2022-11-29T22:56:45.372Z,8.50
2022-11-29T22:59:12.504Z,8.50
2022-11-29T23:01:41.046Z,8.40
2022-11-29T23:04:12.279Z,8.40
2022-11-29T23:06:44.812Z,8.40
2022-11-29T23:09:22.167Z,8.40
2022-11-29T23:11:55.736Z,8.30
2022-11-29T23:14:23.738Z,8.20
2022-11-29T23:16:51.369Z,8.20
2022-11-29T23:19:19.027Z,8.20
2022-11-29T23:21:46.519Z,8.20
2022-11-29T23:24:15.297Z,8.20
2022-11-29T23:26:46.314Z,8.10
2022-11-29T23:29:16.927Z,8.10
2022-11-29T23:31:44.403Z,8.10
2022-11-29T23:34:12.607Z,8.10
2022-11-29T23:36:39.758Z,8.10
2022-11-29T23:39:07.228Z,8.10
2022-11-29T23:41:36.014Z,8.10
2022-11-29T23:44:05.127Z,8.10
2022-11-29T23:46:33.022Z,8.10
2022-11-29T23:49:00.133Z,8.10
2022-11-29T23:51:27.128Z,8.10
2022-11-29T23:53:54.695Z,8.10
2022-11-29T23:56:22.425Z,8.10
2022-11-29T23:58:49.803Z,8.10
